Andiamo — WDE2131 — position and weather

sailwx.info

Track history (hours):
 
Tides and Currents Weather Stations Pressure Air Temp Water Temp Dewpoint Dewpoint Depression Visibility Wind Speed Wind Dir Waves Ship Positions

Andiamo

Owner: Briggs, Robert O, Newport Beach, CA. More information available from US FCC via Universal Licensing System.

Last reported at 2017-Sep-24 14:00 UTC. Time now 2017-Sep-24 14:11 UTC.
Position N 33°37' W 117°55'.

Length 22 m.

Type: Pleasure craft. MMSI: 367320870.

Date/timePositionNaut miles runAvg speedWind from/ knotsBaromVisibWave heightAir tempDewpointWater temp
2017-Sep-24 14:00N 33°37' W 117°55'0 0.0
2017-Sep-24 13:30N 33°37' W 117°55'0 0.0
2017-Sep-24 13:00N 33°37' W 117°55'0 0.0
2017-Sep-24 12:29N 33°37' W 117°55'0 0.0
2017-Sep-24 12:00N 33°37' W 117°55'0 0.0
2017-Sep-24 11:24N 33°37' W 117°55'0 0.0
2017-Sep-24 10:58N 33°37' W 117°55'0 0.0
2017-Sep-24 10:10N 33°37' W 117°55'0 0.0
2017-Sep-24 07:46N 33°37' W 117°55'0 0.0
2017-Sep-24 07:30N 33°37' W 117°55'0 0.0
2017-Sep-24 07:00N 33°37' W 117°55'0 0.0
2017-Sep-24 06:30N 33°37' W 117°55'0 0.0
2017-Sep-24 06:00N 33°37' W 117°55'0 0.0
2017-Sep-24 05:30N 33°37' W 117°55'0 0.0
2017-Sep-24 05:00N 33°37' W 117°55'0 0.0
2017-Sep-24 04:17N 33°37' W 117°55'0 0.0
2017-Sep-24 03:58N 33°37' W 117°55'0 0.0
2017-Sep-24 03:26N 33°37' W 117°55'0 0.0
2017-Sep-24 03:00N 33°37' W 117°55'0 0.0
2017-Sep-24 02:29N 33°37' W 117°55'0 0.0
2017-Sep-24 01:21N 33°37' W 117°55'0 0.0
2017-Sep-23 23:03N 33°37' W 117°55'  
2017-Sep-20 18:17N 33°37' W 117°55'0 0.0
2017-Sep-20 17:37N 33°37' W 117°55'0 0.0
2017-Sep-20 17:30N 33°37' W 117°55'0 0.0
2017-Sep-20 16:57N 33°37' W 117°55'0 0.0
2017-Sep-20 16:20N 33°37' W 117°55'0 0.0
2017-Sep-20 15:58N 33°37' W 117°55'0 0.0
2017-Sep-20 15:24N 33°37' W 117°55'0 0.0
2017-Sep-19 21:59N 33°37' W 117°55'0 0.0
2017-Sep-19 21:30N 33°37' W 117°55'0 0.0
2017-Sep-19 20:55N 33°37' W 117°55'0 0.0
2017-Sep-19 20:30N 33°37' W 117°55'0 0.0
2017-Sep-19 20:00N 33°37' W 117°55'0 0.0
2017-Sep-19 19:30N 33°37' W 117°55'0 0.0
2017-Sep-19 19:00N 33°37' W 117°55'0 0.0
2017-Sep-18 23:24N 33°37' W 117°55'0 0.0
2017-Sep-18 21:17N 33°37' W 117°55'0 0.0
2017-Sep-18 20:58N 33°37' W 117°55'0 0.0
2017-Sep-18 20:29N 33°37' W 117°55'0 0.0
2017-Sep-18 19:58N 33°37' W 117°55'0 0.0
2017-Sep-18 16:02N 33°37' W 117°55'0 0.0
2017-Sep-18 15:56N 33°37' W 117°55'0 0.0
2017-Sep-18 15:15N 33°37' W 117°55'0 0.0
2017-Sep-18 14:56N 33°37' W 117°55'0 0.0
2017-Sep-18 09:42N 33°37' W 117°55'0 0.0
2017-Sep-18 09:25N 33°37' W 117°55'0 0.0
2017-Sep-18 08:49N 33°37' W 117°55'0 0.0
2017-Sep-18 08:28N 33°37' W 117°55'0 0.0
2017-Sep-18 07:02N 33°37' W 117°55'0 0.0
2017-Sep-18 06:45N 33°37' W 117°55'0 0.0
2017-Sep-17 22:45N 33°37' W 117°55'0 0.0
2017-Sep-17 22:18N 33°37' W 117°55'0 0.0
2017-Sep-17 21:34N 33°37' W 117°55'0 0.0
2017-Sep-17 20:15N 33°37' W 117°55'0 0.0
2017-Sep-17 13:24N 33°37' W 117°55'0 0.0
2017-Sep-17 12:58N 33°37' W 117°55'0 0.0
2017-Sep-17 10:03N 33°37' W 117°55'0 0.0
2017-Sep-17 06:57N 33°37' W 117°55'1 0.1
2017-Sep-16 22:45N 33°37' W 117°55'1 5.2
2017-Sep-16 22:28N 33°36' W 117°53'4 8.7
2017-Sep-16 22:01N 33°33' W 117°50'1 1.8
2017-Sep-16 21:30N 33°33' W 117°49'0 0.0
2017-Sep-16 21:00N 33°33' W 117°49'0 0.0
2017-Sep-16 20:30N 33°33' W 117°49'0 0.0
2017-Sep-16 20:00N 33°33' W 117°49'0 0.0
2017-Sep-16 19:30N 33°33' W 117°49'0 0.0
2017-Sep-16 19:00N 33°33' W 117°49'1 2.5
2017-Sep-16 18:30N 33°34' W 117°50'4 8.1
2017-Sep-16 18:00N 33°36' W 117°54'2 0.4
2017-Sep-16 14:02N 33°37' W 117°55'0 0.0
2017-Sep-16 13:47N 33°37' W 117°55'0 0.0
2017-Sep-16 12:39N 33°37' W 117°55'0 0.0
2017-Sep-16 08:20N 33°37' W 117°55'0 0.0
2017-Sep-16 08:00N 33°37' W 117°55'0 0.0
2017-Sep-16 07:23N 33°37' W 117°55'0 0.0
2017-Sep-16 06:25N 33°37' W 117°55'0 0.0
2017-Sep-16 05:58N 33°37' W 117°55'0 0.0
2017-Sep-15 21:58N 33°37' W 117°55'0 0.0
2017-Sep-15 21:28N 33°37' W 117°55'0 0.0
2017-Sep-15 20:23N 33°37' W 117°55'0 0.0
2017-Sep-15 20:00N 33°37' W 117°55'0 0.0
2017-Sep-15 19:26N 33°37' W 117°55'0 0.0
2017-Sep-15 19:00N 33°37' W 117°55'0 0.0
2017-Sep-15 18:30N 33°37' W 117°55'0 0.0
2017-Sep-15 14:55N 33°37' W 117°55'0 0.0
2017-Sep-15 11:36N 33°37' W 117°55'0 0.0
2017-Sep-15 11:15N 33°37' W 117°55'0 0.0
2017-Sep-15 10:43N 33°37' W 117°55'0 0.0
2017-Sep-15 09:42N 33°37' W 117°55'0 0.0
2017-Sep-14 22:25N 33°37' W 117°55'0 0.0
2017-Sep-14 21:49N 33°37' W 117°55'0 0.0
2017-Sep-14 21:29N 33°37' W 117°55'0 0.0
2017-Sep-14 20:50N 33°37' W 117°55'0 0.0
2017-Sep-14 20:28N 33°37' W 117°55'0 0.0
2017-Sep-14 20:00N 33°37' W 117°55'0 0.0
2017-Sep-14 19:30N 33°37' W 117°55'0 0.0
2017-Sep-14 19:01N 33°37' W 117°55'0 0.0
2017-Sep-14 18:30N 33°37' W 117°55'0 0.0
2017-Sep-14 17:53N 33°37' W 117°55'0 0.0
2017-Sep-14 17:30N 33°37' W 117°55'  
Track history (hours):
 
Tides and Currents Weather Stations Pressure Air Temp Water Temp Dewpoint Dewpoint Depression Visibility Wind Speed Wind Dir Waves Ship Positions

Andiamo

Owner: Briggs, Robert O, Newport Beach, CA. More information available from US FCC via Universal Licensing System.

Last reported at 2017-Sep-24 14:00 UTC. Time now 2017-Sep-24 14:11 UTC.
Position N 33°37' W 117°55'.

Length 22 m.

Type: Pleasure craft. MMSI: 367320870.

Date/timePositionNaut miles runAvg speedWind from/ knotsBaromVisibWave heightAir tempDewpointWater temp
2017-Sep-24 14:00N 33°37' W 117°55'0 0.0
2017-Sep-24 13:30N 33°37' W 117°55'0 0.0
2017-Sep-24 13:00N 33°37' W 117°55'0 0.0
2017-Sep-24 12:29N 33°37' W 117°55'0 0.0
2017-Sep-24 12:00N 33°37' W 117°55'0 0.0
2017-Sep-24 11:24N 33°37' W 117°55'0 0.0
2017-Sep-24 10:58N 33°37' W 117°55'0 0.0
2017-Sep-24 10:10N 33°37' W 117°55'0 0.0
2017-Sep-24 07:46N 33°37' W 117°55'0 0.0
2017-Sep-24 07:30N 33°37' W 117°55'0 0.0
2017-Sep-24 07:00N 33°37' W 117°55'0 0.0
2017-Sep-24 06:30N 33°37' W 117°55'0 0.0
2017-Sep-24 06:00N 33°37' W 117°55'0 0.0
2017-Sep-24 05:30N 33°37' W 117°55'0 0.0
2017-Sep-24 05:00N 33°37' W 117°55'0 0.0
2017-Sep-24 04:17N 33°37' W 117°55'0 0.0
2017-Sep-24 03:58N 33°37' W 117°55'0 0.0
2017-Sep-24 03:26N 33°37' W 117°55'0 0.0
2017-Sep-24 03:00N 33°37' W 117°55'0 0.0
2017-Sep-24 02:29N 33°37' W 117°55'0 0.0
2017-Sep-24 01:21N 33°37' W 117°55'0 0.0
2017-Sep-23 23:03N 33°37' W 117°55'  
2017-Sep-20 18:17N 33°37' W 117°55'0 0.0
2017-Sep-20 17:37N 33°37' W 117°55'0 0.0
2017-Sep-20 17:30N 33°37' W 117°55'0 0.0
2017-Sep-20 16:57N 33°37' W 117°55'0 0.0
2017-Sep-20 16:20N 33°37' W 117°55'0 0.0
2017-Sep-20 15:58N 33°37' W 117°55'0 0.0
2017-Sep-20 15:24N 33°37' W 117°55'0 0.0
2017-Sep-19 21:59N 33°37' W 117°55'0 0.0
2017-Sep-19 21:30N 33°37' W 117°55'0 0.0
2017-Sep-19 20:55N 33°37' W 117°55'0 0.0
2017-Sep-19 20:30N 33°37' W 117°55'0 0.0
2017-Sep-19 20:00N 33°37' W 117°55'0 0.0
2017-Sep-19 19:30N 33°37' W 117°55'0 0.0
2017-Sep-19 19:00N 33°37' W 117°55'0 0.0
2017-Sep-18 23:24N 33°37' W 117°55'0 0.0
2017-Sep-18 21:17N 33°37' W 117°55'0 0.0
2017-Sep-18 20:58N 33°37' W 117°55'0 0.0
2017-Sep-18 20:29N 33°37' W 117°55'0 0.0
2017-Sep-18 19:58N 33°37' W 117°55'0 0.0
2017-Sep-18 16:02N 33°37' W 117°55'0 0.0
2017-Sep-18 15:56N 33°37' W 117°55'0 0.0
2017-Sep-18 15:15N 33°37' W 117°55'0 0.0
2017-Sep-18 14:56N 33°37' W 117°55'0 0.0
2017-Sep-18 09:42N 33°37' W 117°55'0 0.0
2017-Sep-18 09:25N 33°37' W 117°55'0 0.0
2017-Sep-18 08:49N 33°37' W 117°55'0 0.0
2017-Sep-18 08:28N 33°37' W 117°55'0 0.0
2017-Sep-18 07:02N 33°37' W 117°55'0 0.0
2017-Sep-18 06:45N 33°37' W 117°55'0 0.0
2017-Sep-17 22:45N 33°37' W 117°55'0 0.0
2017-Sep-17 22:18N 33°37' W 117°55'0 0.0
2017-Sep-17 21:34N 33°37' W 117°55'0 0.0
2017-Sep-17 20:15N 33°37' W 117°55'0 0.0
2017-Sep-17 13:24N 33°37' W 117°55'0 0.0
2017-Sep-17 12:58N 33°37' W 117°55'0 0.0
2017-Sep-17 10:03N 33°37' W 117°55'0 0.0
2017-Sep-17 06:57N 33°37' W 117°55'1 0.1
2017-Sep-16 22:45N 33°37' W 117°55'1 5.2
2017-Sep-16 22:28N 33°36' W 117°53'4 8.7
2017-Sep-16 22:01N 33°33' W 117°50'1 1.8
2017-Sep-16 21:30N 33°33' W 117°49'0 0.0
2017-Sep-16 21:00N 33°33' W 117°49'0 0.0
2017-Sep-16 20:30N 33°33' W 117°49'0 0.0
2017-Sep-16 20:00N 33°33' W 117°49'0 0.0
2017-Sep-16 19:30N 33°33' W 117°49'0 0.0
2017-Sep-16 19:00N 33°33' W 117°49'1 2.5
2017-Sep-16 18:30N 33°34' W 117°50'4 8.1
2017-Sep-16 18:00N 33°36' W 117°54'2 0.4
2017-Sep-16 14:02N 33°37' W 117°55'0 0.0
2017-Sep-16 13:47N 33°37' W 117°55'0 0.0
2017-Sep-16 12:39N 33°37' W 117°55'0 0.0
2017-Sep-16 08:20N 33°37' W 117°55'0 0.0
2017-Sep-16 08:00N 33°37' W 117°55'0 0.0
2017-Sep-16 07:23N 33°37' W 117°55'0 0.0
2017-Sep-16 06:25N 33°37' W 117°55'0 0.0
2017-Sep-16 05:58N 33°37' W 117°55'0 0.0
2017-Sep-15 21:58N 33°37' W 117°55'0 0.0
2017-Sep-15 21:28N 33°37' W 117°55'0 0.0
2017-Sep-15 20:23N 33°37' W 117°55'0 0.0
2017-Sep-15 20:00N 33°37' W 117°55'0 0.0
2017-Sep-15 19:26N 33°37' W 117°55'0 0.0
2017-Sep-15 19:00N 33°37' W 117°55'0 0.0
2017-Sep-15 18:30N 33°37' W 117°55'0 0.0
2017-Sep-15 14:55N 33°37' W 117°55'0 0.0
2017-Sep-15 11:36N 33°37' W 117°55'0 0.0
2017-Sep-15 11:15N 33°37' W 117°55'0 0.0
2017-Sep-15 10:43N 33°37' W 117°55'0 0.0
2017-Sep-15 09:42N 33°37' W 117°55'0 0.0
2017-Sep-14 22:25N 33°37' W 117°55'0 0.0
2017-Sep-14 21:49N 33°37' W 117°55'0 0.0
2017-Sep-14 21:29N 33°37' W 117°55'0 0.0
2017-Sep-14 20:50N 33°37' W 117°55'0 0.0
2017-Sep-14 20:28N 33°37' W 117°55'0 0.0
2017-Sep-14 20:00N 33°37' W 117°55'0 0.0
2017-Sep-14 19:30N 33°37' W 117°55'0 0.0
2017-Sep-14 19:01N 33°37' W 117°55'0 0.0
2017-Sep-14 18:30N 33°37' W 117°55'0 0.0
2017-Sep-14 17:53N 33°37' W 117°55'0 0.0
2017-Sep-14 17:30N 33°37' W 117°55'  

Dump ship's entire track history